sensor_id;sensor_type;location;lat;lon;timestamp;pressure;altitude;pressure_sealevel;temperature;humidity
35878;BME280;21982;49.804;24.072;2023-03-21T00:01:21;97070.78;;;11.62;49.71
35878;BME280;21982;49.804;24.072;2023-03-21T00:03:47;96894.69;;;10.49;49.53
35878;BME280;21982;49.804;24.072;2023-03-21T00:06:13;97092.38;;;11.59;50.07
35878;BME280;21982;49.804;24.072;2023-03-21T00:08:39;97039.53;;;11.51;50.32
35878;BME280;21982;49.804;24.072;2023-03-21T00:11:07;96945.38;;;10.94;49.72
35878;BME280;21982;49.804;24.072;2023-03-21T00:13:34;96858.22;;;10.38;50.13
35878;BME280;21982;49.804;24.072;2023-03-21T00:16:10;97050.19;;;11.64;50.04
35878;BME280;21982;49.804;24.072;2023-03-21T00:18:49;96951.53;;;11.01;50.46
35878;BME280;21982;49.804;24.072;2023-03-21T00:21:20;96944.59;;;11.00;50.18
35878;BME280;21982;49.804;24.072;2023-03-21T00:23:46;97069.13;;;11.61;50.14
35878;BME280;21982;49.804;24.072;2023-03-21T00:26:13;97066.88;;;11.58;50.52
35878;BME280;21982;49.804;24.072;2023-03-21T00:28:40;96938.81;;;10.83;50.44
35878;BME280;21982;49.804;24.072;2023-03-21T00:31:06;96843.56;;;10.07;50.86
35878;BME280;21982;49.804;24.072;2023-03-21T00:33:32;97050.53;;;11.41;51.08
35878;BME280;21982;49.804;24.072;2023-03-21T00:35:59;97042.56;;;11.34;50.97
35878;BME280;21982;49.804;24.072;2023-03-21T00:38:25;96588.41;;;8.54;51.10
35878;BME280;21982;49.804;24.072;2023-03-21T00:40:51;97039.69;;;11.29;51.43
35878;BME280;21982;49.804;24.072;2023-03-21T00:43:16;96715.78;;;9.18;51.40
35878;BME280;21982;49.804;24.072;2023-03-21T00:45:50;97078.34;;;11.17;51.25
35878;BME280;21982;49.804;24.072;2023-03-21T00:48:17;97035.09;;;11.10;51.77
35878;BME280;21982;49.804;24.072;2023-03-21T00:50:44;96886.00;;;10.21;52.07
35878;BME280;21982;49.804;24.072;2023-03-21T00:53:11;96980.38;;;10.83;52.11
35878;BME280;21982;49.804;24.072;2023-03-21T00:55:36;96744.53;;;9.34;52.07
35878;BME280;21982;49.804;24.072;2023-03-21T00:58:03;97031.03;;;11.07;52.42
35878;BME280;21982;49.804;24.072;2023-03-21T01:00:29;96802.69;;;9.69;52.28
35878;BME280;21982;49.804;24.072;2023-03-21T01:02:56;96849.44;;;9.96;52.98
35878;BME280;21982;49.804;24.072;2023-03-21T01:05:24;96947.59;;;10.43;52.94
35878;BME280;21982;49.804;24.072;2023-03-21T01:08:10;96844.38;;;9.73;53.10
35878;BME280;21982;49.804;24.072;2023-03-21T01:10:38;96860.06;;;9.75;53.54
35878;BME280;21982;49.804;24.072;2023-03-21T01:13:04;96902.31;;;9.96;53.40
35878;BME280;21982;49.804;24.072;2023-03-21T01:15:29;96926.88;;;10.18;53.40
35878;BME280;21982;49.804;24.072;2023-03-21T01:17:55;96968.41;;;10.52;53.68
35878;BME280;21982;49.804;24.072;2023-03-21T01:20:20;97037.81;;;10.82;53.59
35878;BME280;21982;49.804;24.072;2023-03-21T01:22:45;96743.44;;;9.22;53.89
35878;BME280;21982;49.804;24.072;2023-03-21T01:25:11;96685.94;;;8.90;54.10
35878;BME280;21982;49.804;24.072;2023-03-21T01:27:36;96797.28;;;9.21;53.93
35878;BME280;21982;49.804;24.072;2023-03-21T01:30:05;97066.91;;;11.03;54.07
35878;BME280;21982;49.804;24.072;2023-03-21T01:32:31;96869.59;;;9.69;54.72
35878;BME280;21982;49.804;24.072;2023-03-21T01:34:56;96931.31;;;10.39;54.67
35878;BME280;21982;49.804;24.072;2023-03-21T01:37:22;97041.84;;;11.06;54.88
35878;BME280;21982;49.804;24.072;2023-03-21T01:39:50;97013.25;;;10.95;54.71
35878;BME280;21982;49.804;24.072;2023-03-21T01:42:15;97027.16;;;11.10;54.93
35878;BME280;21982;49.804;24.072;2023-03-21T01:47:21;96995.91;;;10.92;55.46
35878;BME280;21982;49.804;24.072;2023-03-21T01:49:50;97025.53;;;11.16;55.29
35878;BME280;21982;49.804;24.072;2023-03-21T01:52:19;97023.72;;;11.16;55.55
35878;BME280;21982;49.804;24.072;2023-03-21T01:54:48;96781.31;;;9.64;55.54
35878;BME280;21982;49.804;24.072;2023-03-21T01:57:22;97059.59;;;11.19;55.53
35878;BME280;21982;49.804;24.072;2023-03-21T01:59:56;96980.59;;;10.88;55.80
35878;BME280;21982;49.804;24.072;2023-03-21T02:02:26;96968.81;;;10.90;55.97
35878;BME280;21982;49.804;24.072;2023-03-21T02:04:52;97032.28;;;11.18;56.13
35878;BME280;21982;49.804;24.072;2023-03-21T02:07:31;96989.16;;;10.90;56.41
35878;BME280;21982;49.804;24.072;2023-03-21T02:10:02;97020.06;;;11.17;56.44
35878;BME280;21982;49.804;24.072;2023-03-21T02:12:29;96858.22;;;10.10;56.74
35878;BME280;21982;49.804;24.072;2023-03-21T02:14:55;96981.56;;;10.73;56.80
35878;BME280;21982;49.804;24.072;2023-03-21T02:17:35;97019.44;;;11.08;56.54
35878;BME280;21982;49.804;24.072;2023-03-21T02:28:27;97029.25;;;10.80;58.38
35878;BME280;21982;49.804;24.072;2023-03-21T02:31:21;97022.13;;;10.74;58.35
35878;BME280;21982;49.804;24.072;2023-03-21T02:33:56;97020.22;;;10.61;58.99
35878;BME280;21982;49.804;24.072;2023-03-21T02:39:25;96955.28;;;10.09;59.03
35878;BME280;21982;49.804;24.072;2023-03-21T02:42:06;97013.84;;;10.56;59.58
35878;BME280;21982;49.804;24.072;2023-03-21T02:44:51;96961.25;;;10.18;59.64
35878;BME280;21982;49.804;24.072;2023-03-21T02:50:15;97010.38;;;10.55;59.91
35878;BME280;21982;49.804;24.072;2023-03-21T02:52:45;97014.28;;;10.59;60.79
35878;BME280;21982;49.804;24.072;2023-03-21T02:55:15;96960.19;;;10.34;60.53
35878;BME280;21982;49.804;24.072;2023-03-21T02:57:43;97017.56;;;10.61;60.81
35878;BME280;21982;49.804;24.072;2023-03-21T03:00:16;97010.63;;;10.60;60.97
35878;BME280;21982;49.804;24.072;2023-03-21T03:02:43;97013.44;;;10.52;61.16
35878;BME280;21982;49.804;24.072;2023-03-21T03:18:40;97006.31;;;10.53;61.75
35878;BME280;21982;49.804;24.072;2023-03-21T03:21:29;97009.56;;;10.55;61.31
35878;BME280;21982;49.804;24.072;2023-03-21T03:24:05;96731.63;;;8.90;62.22
35878;BME280;21982;49.804;24.072;2023-03-21T03:29:06;97009.13;;;10.51;61.85
35878;BME280;21982;49.804;24.072;2023-03-21T03:31:36;96944.97;;;10.15;62.16
35878;BME280;21982;49.804;24.072;2023-03-21T03:34:09;96898.81;;;9.89;62.22
35878;BME280;21982;49.804;24.072;2023-03-21T03:36:41;97004.72;;;10.58;62.24
35878;BME280;21982;49.804;24.072;2023-03-21T03:39:10;96989.75;;;10.44;62.70
35878;BME280;21982;49.804;24.072;2023-03-21T03:41:48;97008.22;;;10.65;62.46
35878;BME280;21982;49.804;24.072;2023-03-21T03:44:15;96896.50;;;9.80;62.67
35878;BME280;21982;49.804;24.072;2023-03-21T03:47:08;96999.88;;;10.75;62.43
35878;BME280;21982;49.804;24.072;2023-03-21T03:49:41;97003.59;;;10.81;62.58
35878;BME280;21982;49.804;24.072;2023-03-21T03:52:25;97001.97;;;10.80;62.94
35878;BME280;21982;49.804;24.072;2023-03-21T03:54:52;97000.31;;;10.79;62.45
35878;BME280;21982;49.804;24.072;2023-03-21T03:57:18;96890.03;;;10.17;62.98
35878;BME280;21982;49.804;24.072;2023-03-21T03:59:44;97001.16;;;10.86;63.04
35878;BME280;21982;49.804;24.072;2023-03-21T04:02:12;96881.03;;;10.04;63.02
35878;BME280;21982;49.804;24.072;2023-03-21T04:04:38;96776.00;;;9.29;63.82
35878;BME280;21982;49.804;24.072;2023-03-21T04:07:04;97010.88;;;10.65;64.11
35878;BME280;21982;49.804;24.072;2023-03-21T04:09:32;96949.16;;;10.30;64.05
35878;BME280;21982;49.804;24.072;2023-03-21T04:11:58;96956.91;;;10.32;64.32
35878;BME280;21982;49.804;24.072;2023-03-21T04:14:24;96901.56;;;10.02;64.25
35878;BME280;21982;49.804;24.072;2023-03-21T04:16:50;96928.34;;;10.21;64.75
35878;BME280;21982;49.804;24.072;2023-03-21T04:19:17;96955.31;;;10.37;64.90
35878;BME280;21982;49.804;24.072;2023-03-21T04:21:43;96866.59;;;9.79;65.09
35878;BME280;21982;49.804;24.072;2023-03-21T04:24:08;96964.72;;;10.47;64.87
35878;BME280;21982;49.804;24.072;2023-03-21T04:26:34;96995.56;;;10.61;65.28
35878;BME280;21982;49.804;24.072;2023-03-21T04:29:00;96897.66;;;9.98;65.27
35878;BME280;21982;49.804;24.072;2023-03-21T04:31:26;96765.59;;;9.21;65.33
35878;BME280;21982;49.804;24.072;2023-03-21T04:33:58;96883.44;;;9.99;65.34
35878;BME280;21982;49.804;24.072;2023-03-21T04:36:24;96968.00;;;10.49;65.21
35878;BME280;21982;49.804;24.072;2023-03-21T04:38:58;96996.03;;;10.78;65.47
35878;BME280;21982;49.804;24.072;2023-03-21T04:41:26;96898.72;;;10.11;65.71
35878;BME280;21982;49.804;24.072;2023-03-21T04:43:52;96944.94;;;10.43;65.55
35878;BME280;21982;49.804;24.072;2023-03-21T04:46:18;96919.09;;;10.38;65.58
35878;BME280;21982;49.804;24.072;2023-03-21T04:48:44;97001.84;;;10.94;65.18
35878;BME280;21982;49.804;24.072;2023-03-21T04:51:09;96879.81;;;10.14;65.40
35878;BME280;21982;49.804;24.072;2023-03-21T04:53:35;97007.34;;;10.99;65.56
35878;BME280;21982;49.804;24.072;2023-03-21T04:56:02;96999.84;;;11.03;65.49
35878;BME280;21982;49.804;24.072;2023-03-21T04:58:28;96970.22;;;10.86;65.31
35878;BME280;21982;49.804;24.072;2023-03-21T05:00:54;96860.56;;;10.20;65.24
35878;BME280;21982;49.804;24.072;2023-03-21T05:03:21;96962.84;;;10.82;65.44
35878;BME280;21982;49.804;24.072;2023-03-21T05:05:47;96940.41;;;10.78;65.35
35878;BME280;21982;49.804;24.072;2023-03-21T05:08:13;97005.34;;;11.15;65.71
35878;BME280;21982;49.804;24.072;2023-03-21T05:10:39;96940.81;;;10.68;65.45
35878;BME280;21982;49.804;24.072;2023-03-21T05:13:05;97010.66;;;11.08;65.64
35878;BME280;21982;49.804;24.072;2023-03-21T05:15:30;96969.16;;;10.81;65.86
35878;BME280;21982;49.804;24.072;2023-03-21T05:17:57;97017.56;;;11.09;65.93
35878;BME280;21982;49.804;24.072;2023-03-21T05:20:35;96872.50;;;10.16;65.51
35878;BME280;21982;49.804;24.072;2023-03-21T05:23:01;97016.34;;;11.05;65.94
35878;BME280;21982;49.804;24.072;2023-03-21T05:25:26;96928.09;;;10.50;65.93
35878;BME280;21982;49.804;24.072;2023-03-21T05:27:59;97016.34;;;11.05;66.21
35878;BME280;21982;49.804;24.072;2023-03-21T05:30:26;96744.94;;;9.31;65.98
35878;BME280;21982;49.804;24.072;2023-03-21T05:32:52;96868.72;;;9.90;66.41
35878;BME280;21982;49.804;24.072;2023-03-21T05:35:17;96782.94;;;9.37;66.30
35878;BME280;21982;49.804;24.072;2023-03-21T05:37:43;97000.47;;;10.64;66.80
35878;BME280;21982;49.804;24.072;2023-03-21T05:40:09;97015.00;;;10.81;67.16
35878;BME280;21982;49.804;24.072;2023-03-21T05:42:34;97021.50;;;10.79;67.05
35878;BME280;21982;49.804;24.072;2023-03-21T05:44:59;97002.34;;;10.77;66.95
35878;BME280;21982;49.804;24.072;2023-03-21T05:47:25;96861.94;;;9.81;67.27
35878;BME280;21982;49.804;24.072;2023-03-21T05:49:50;96968.00;;;10.49;67.30
35878;BME280;21982;49.804;24.072;2023-03-21T05:52:16;96889.28;;;9.95;67.24
35878;BME280;21982;49.804;24.072;2023-03-21T05:54:42;97013.94;;;10.75;67.48
35878;BME280;21982;49.804;24.072;2023-03-21T05:57:07;97004.78;;;10.71;67.51
35878;BME280;21982;49.804;24.072;2023-03-21T05:59:33;96989.41;;;10.54;67.73
35878;BME280;21982;49.804;24.072;2023-03-21T06:01:59;97032.09;;;10.79;67.57
35878;BME280;21982;49.804;24.072;2023-03-21T06:04:25;97017.03;;;10.79;67.46
35878;BME280;21982;49.804;24.072;2023-03-21T06:06:51;96878.94;;;10.00;67.46
35878;BME280;21982;49.804;24.072;2023-03-21T06:09:20;97020.34;;;10.88;67.73
35878;BME280;21982;49.804;24.072;2023-03-21T06:11:48;96864.72;;;10.07;67.69
35878;BME280;21982;49.804;24.072;2023-03-21T06:14:15;96959.97;;;10.77;67.33
35878;BME280;21982;49.804;24.072;2023-03-21T06:16:41;97011.06;;;11.12;67.27
35878;BME280;21982;49.804;24.072;2023-03-21T06:19:06;97010.25;;;11.04;67.23
35878;BME280;21982;49.804;24.072;2023-03-21T06:24:08;97019.94;;;11.38;67.09
35878;BME280;21982;49.804;24.072;2023-03-21T06:26:33;97024.63;;;11.36;66.70
35878;BME280;21982;49.804;24.072;2023-03-21T06:28:59;97018.69;;;11.34;66.92
35878;BME280;21982;49.804;24.072;2023-03-21T06:31:25;96942.13;;;10.92;66.65
35878;BME280;21982;49.804;24.072;2023-03-21T06:33:51;96999.66;;;11.18;66.57
35878;BME280;21982;49.804;24.072;2023-03-21T06:36:45;97026.66;;;11.34;66.81
35878;BME280;21982;49.804;24.072;2023-03-21T06:39:13;97030.31;;;11.33;66.81
35878;BME280;21982;49.804;24.072;2023-03-21T06:41:40;97031.06;;;11.21;66.88
35878;BME280;21982;49.804;24.072;2023-03-21T06:44:05;97033.09;;;11.19;67.07
35878;BME280;21982;49.804;24.072;2023-03-21T06:52:09;97029.47;;;11.26;67.18
35878;BME280;21982;49.804;24.072;2023-03-21T06:54:35;96786.97;;;9.61;67.21
35878;BME280;21982;49.804;24.072;2023-03-21T06:57:01;96538.84;;;7.72;67.18
35878;BME280;21982;49.804;24.072;2023-03-21T06:59:26;97049.34;;;11.02;67.62
35878;BME280;21982;49.804;24.072;2023-03-21T07:01:52;97038.72;;;10.96;67.94
35878;BME280;21982;49.804;24.072;2023-03-21T07:04:17;97066.97;;;10.82;68.17
35878;BME280;21982;49.804;24.072;2023-03-21T07:06:43;96954.56;;;10.50;68.21
35878;BME280;21982;49.804;24.072;2023-03-21T07:09:08;96679.09;;;8.74;68.05
35878;BME280;21982;49.804;24.072;2023-03-21T07:11:34;97044.22;;;10.94;68.43
35878;BME280;21982;49.804;24.072;2023-03-21T07:14:00;97049.28;;;10.89;68.39
35878;BME280;21982;49.804;24.072;2023-03-21T07:16:26;97019.88;;;10.71;68.21
35878;BME280;21982;49.804;24.072;2023-03-21T07:18:54;96748.72;;;8.94;68.67
35878;BME280;21982;49.804;24.072;2023-03-21T07:21:20;96797.91;;;9.23;68.63
35878;BME280;21982;49.804;24.072;2023-03-21T07:23:45;96954.28;;;10.32;68.98
35878;BME280;21982;49.804;24.072;2023-03-21T07:26:11;97026.25;;;10.90;68.80
35878;BME280;21982;49.804;24.072;2023-03-21T07:28:36;96915.19;;;10.06;68.78
35878;BME280;21982;49.804;24.072;2023-03-21T07:31:04;96942.91;;;10.38;68.79
35878;BME280;21982;49.804;24.072;2023-03-21T07:33:31;96890.16;;;10.08;68.55
35878;BME280;21982;49.804;24.072;2023-03-21T07:35:57;97052.84;;;11.09;68.86
35878;BME280;21982;49.804;24.072;2023-03-21T07:38:23;97013.63;;;10.92;68.71
35878;BME280;21982;49.804;24.072;2023-03-21T07:40:48;97011.34;;;10.82;68.65
35878;BME280;21982;49.804;24.072;2023-03-21T07:43:15;96794.16;;;9.39;68.91
35878;BME280;21982;49.804;24.072;2023-03-21T07:45:41;97057.50;;;11.01;69.21
35878;BME280;21982;49.804;24.072;2023-03-21T07:48:07;97059.53;;;10.99;68.93
35878;BME280;21982;49.804;24.072;2023-03-21T07:50:33;97055.25;;;10.98;68.91
35878;BME280;21982;49.804;24.072;2023-03-21T07:52:58;96921.34;;;10.13;69.13
35878;BME280;21982;49.804;24.072;2023-03-21T07:55:26;97065.69;;;11.06;69.01
35878;BME280;21982;49.804;24.072;2023-03-21T07:57:52;97065.25;;;11.09;69.12
35878;BME280;21982;49.804;24.072;2023-03-21T08:00:19;96764.44;;;9.30;68.93
35878;BME280;21982;49.804;24.072;2023-03-21T08:02:52;97073.47;;;11.21;69.16
35878;BME280;21982;49.804;24.072;2023-03-21T08:05:39;97069.81;;;11.22;68.67
35878;BME280;21982;49.804;24.072;2023-03-21T08:08:04;97076.97;;;11.28;69.06
35878;BME280;21982;49.804;24.072;2023-03-21T08:10:30;97076.78;;;11.29;69.16
35878;BME280;21982;49.804;24.072;2023-03-21T08:12:56;96884.44;;;10.05;68.76
35878;BME280;21982;49.804;24.072;2023-03-21T08:15:21;97083.50;;;11.25;68.98
35878;BME280;21982;49.804;24.072;2023-03-21T08:17:47;97050.59;;;11.06;68.96
35878;BME280;21982;49.804;24.072;2023-03-21T08:20:15;97077.81;;;11.28;69.30
35878;BME280;21982;49.804;24.072;2023-03-21T08:22:41;97085.75;;;11.28;68.71
35878;BME280;21982;49.804;24.072;2023-03-21T08:25:08;97085.75;;;11.28;69.36
35878;BME280;21982;49.804;24.072;2023-03-21T08:27:38;97088.63;;;11.33;69.20
35878;BME280;21982;49.804;24.072;2023-03-21T08:30:04;96861.00;;;9.95;69.27
35878;BME280;21982;49.804;24.072;2023-03-21T08:32:29;97091.50;;;11.38;69.03
35878;BME280;21982;49.804;24.072;2023-03-21T08:35:18;97095.56;;;11.34;68.44
35878;BME280;21982;49.804;24.072;2023-03-21T08:37:50;97092.19;;;11.06;68.46
35878;BME280;21982;49.804;24.072;2023-03-21T08:40:20;97097.53;;;11.19;68.95
35878;BME280;21982;49.804;24.072;2023-03-21T08:42:48;96937.66;;;10.17;68.60
35878;BME280;21982;49.804;24.072;2023-03-21T08:45:16;97068.88;;;10.95;68.78
35878;BME280;21982;49.804;24.072;2023-03-21T08:47:42;97105.47;;;11.19;68.96
35878;BME280;21982;49.804;24.072;2023-03-21T08:50:16;97097.13;;;11.22;68.52
35878;BME280;21982;49.804;24.072;2023-03-21T08:52:41;96991.22;;;10.53;69.08
35878;BME280;21982;49.804;24.072;2023-03-21T08:55:09;97102.09;;;11.32;69.04
35878;BME280;21982;49.804;24.072;2023-03-21T08:57:35;97021.50;;;10.79;68.75
35878;BME280;21982;49.804;24.072;2023-03-21T09:00:01;97060.88;;;11.29;68.37
35878;BME280;21982;49.804;24.072;2023-03-21T09:02:32;96878.34;;;10.32;67.93
35878;BME280;21982;49.804;24.072;2023-03-21T09:04:58;97103.34;;;12.03;67.90
35878;BME280;21982;49.804;24.072;2023-03-21T09:07:26;96986.28;;;11.52;67.06
35878;BME280;21982;49.804;24.072;2023-03-21T09:09:58;97106.81;;;12.57;66.66
35878;BME280;21982;49.804;24.072;2023-03-21T09:12:24;97090.44;;;12.86;66.35
35878;BME280;21982;49.804;24.072;2023-03-21T09:14:51;96993.03;;;12.60;65.01
35878;BME280;21982;49.804;24.072;2023-03-21T09:17:18;97113.56;;;13.57;64.09
35878;BME280;21982;49.804;24.072;2023-03-21T09:19:43;97114.78;;;13.61;63.74
35878;BME280;21982;49.804;24.072;2023-03-21T09:22:10;97119.50;;;13.52;63.62
35878;BME280;21982;49.804;24.072;2023-03-21T09:24:42;97048.78;;;12.80;63.82
35878;BME280;21982;49.804;24.072;2023-03-21T09:27:07;96822.09;;;11.18;63.55
35878;BME280;21982;49.804;24.072;2023-03-21T09:29:33;96964.69;;;12.15;63.66
35878;BME280;21982;49.804;24.072;2023-03-21T09:31:59;97079.44;;;12.76;63.82
35878;BME280;21982;49.804;24.072;2023-03-21T09:34:28;97044.13;;;12.36;64.09
35878;BME280;21982;49.804;24.072;2023-03-21T09:36:55;97052.09;;;12.36;63.66
35878;BME280;21982;49.804;24.072;2023-03-21T09:39:22;97097.88;;;12.45;63.84
35878;BME280;21982;49.804;24.072;2023-03-21T09:41:56;97125.63;;;12.75;63.67
35878;BME280;21982;49.804;24.072;2023-03-21T09:44:51;97014.94;;;11.90;63.35
35878;BME280;21982;49.804;24.072;2023-03-21T09:47:24;96972.84;;;11.40;63.75
35878;BME280;21982;49.804;24.072;2023-03-21T09:50:12;97125.84;;;12.47;63.57
35878;BME280;21982;49.804;24.072;2023-03-21T09:52:45;97080.06;;;12.19;63.97
35878;BME280;21982;49.804;24.072;2023-03-21T09:55:21;97087.63;;;12.15;63.73
35878;BME280;21982;49.804;24.072;2023-03-21T09:57:50;96930.75;;;11.18;63.54
35878;BME280;21982;49.804;24.072;2023-03-21T10:00:26;97092.94;;;12.22;63.49
35878;BME280;21982;49.804;24.072;2023-03-21T10:03:03;97071.50;;;12.17;63.39
35878;BME280;21982;49.804;24.072;2023-03-21T10:05:32;96976.09;;;11.56;63.58
35878;BME280;21982;49.804;24.072;2023-03-21T10:10:32;97089.06;;;12.24;63.43
35878;BME280;21982;49.804;24.072;2023-03-21T10:12:59;97134.41;;;12.49;63.52
35878;BME280;21982;49.804;24.072;2023-03-21T10:15:26;97137.06;;;12.49;63.49
35878;BME280;21982;49.804;24.072;2023-03-21T10:18:04;97123.19;;;12.40;63.26
35878;BME280;21982;49.804;24.072;2023-03-21T10:20:31;97130.34;;;12.40;63.21
35878;BME280;21982;49.804;24.072;2023-03-21T10:22:59;97146.06;;;12.35;63.09
35878;BME280;21982;49.804;24.072;2023-03-21T10:25:31;97146.88;;;12.29;63.22
35878;BME280;21982;49.804;24.072;2023-03-21T10:27:58;97026.25;;;11.44;63.72
35878;BME280;21982;49.804;24.072;2023-03-21T10:33:03;96982.50;;;11.00;64.09
35878;BME280;21982;49.804;24.072;2023-03-21T10:35:33;97032.78;;;11.48;64.14
35878;BME280;21982;49.804;24.072;2023-03-21T10:38:02;96925.16;;;10.80;64.20
35878;BME280;21982;49.804;24.072;2023-03-21T10:40:27;96867.38;;;10.42;64.51
35878;BME280;21982;49.804;24.072;2023-03-21T10:43:16;97091.81;;;11.70;64.33
35878;BME280;21982;49.804;24.072;2023-03-21T10:45:45;97093.09;;;11.87;64.61
35878;BME280;21982;49.804;24.072;2023-03-21T10:48:14;96921.31;;;10.89;64.93
35878;BME280;21982;49.804;24.072;2023-03-21T10:50:40;97129.31;;;12.34;64.81
35878;BME280;21982;49.804;24.072;2023-03-21T10:53:26;96997.56;;;11.74;64.11
35878;BME280;21982;49.804;24.072;2023-03-21T10:55:55;97103.34;;;12.56;64.14
35878;BME280;21982;49.804;24.072;2023-03-21T10:58:26;97123.94;;;13.00;64.11
35878;BME280;21982;49.804;24.072;2023-03-21T11:01:00;97149.72;;;13.00;63.55
35878;BME280;21982;49.804;24.072;2023-03-21T11:03:29;97139.69;;;13.15;63.49
35878;BME280;21982;49.804;24.072;2023-03-21T11:06:05;97132.28;;;13.30;63.27
35878;BME280;21982;49.804;24.072;2023-03-21T11:08:42;96913.69;;;12.06;62.85
35878;BME280;21982;49.804;24.072;2023-03-21T11:11:10;97132.78;;;13.59;62.96
35878;BME280;21982;49.804;24.072;2023-03-21T11:13:43;97082.06;;;13.54;62.59
35878;BME280;21982;49.804;24.072;2023-03-21T11:16:11;97122.72;;;14.12;61.66
35878;BME280;21982;49.804;24.072;2023-03-21T11:18:44;97124.41;;;14.31;61.38
35878;BME280;21982;49.804;24.072;2023-03-21T11:21:15;97044.13;;;14.03;60.74
35878;BME280;21982;49.804;24.072;2023-03-21T11:23:47;97106.59;;;14.57;59.71
35878;BME280;21982;49.804;24.072;2023-03-21T11:26:20;97128.03;;;14.68;59.77
35878;BME280;21982;49.804;24.072;2023-03-21T11:28:50;97125.84;;;14.59;59.61
35878;BME280;21982;49.804;24.072;2023-03-21T11:31:16;97053.31;;;14.07;59.43
35878;BME280;21982;49.804;24.072;2023-03-21T11:33:54;96989.44;;;13.75;58.86
35878;BME280;21982;49.804;24.072;2023-03-21T11:36:30;97112.75;;;14.57;59.22
35878;BME280;21982;49.804;24.072;2023-03-21T11:39:02;97110.56;;;14.54;59.21
35878;BME280;21982;49.804;24.072;2023-03-21T11:41:39;97019.94;;;14.04;58.68
35878;BME280;21982;49.804;24.072;2023-03-21T11:44:05;97123.63;;;14.56;58.50
35878;BME280;21982;49.804;24.072;2023-03-21T11:46:31;97084.00;;;14.41;58.63
35878;BME280;21982;49.804;24.072;2023-03-21T11:49:07;96897.13;;;13.20;58.82
35878;BME280;21982;49.804;24.072;2023-03-21T11:51:47;97102.69;;;14.59;58.67
35878;BME280;21982;49.804;24.072;2023-03-21T11:54:27;97107.81;;;14.86;58.42
35878;BME280;21982;49.804;24.072;2023-03-21T11:57:15;97100.75;;;14.91;58.13
35878;BME280;21982;49.804;24.072;2023-03-21T11:59:46;97105.84;;;14.74;58.39
35878;BME280;21982;49.804;24.072;2023-03-21T12:04:46;96994.22;;;13.92;58.45
35878;BME280;21982;49.804;24.072;2023-03-21T12:10:54;97118.75;;;14.53;58.12
35878;BME280;21982;49.804;24.072;2023-03-21T12:13:39;96954.00;;;13.50;58.51
35878;BME280;21982;49.804;24.072;2023-03-21T12:16:27;97100.00;;;14.41;58.44
35878;BME280;21982;49.804;24.072;2023-03-21T12:21:56;97031.28;;;13.93;58.56
35878;BME280;21982;49.804;24.072;2023-03-21T12:24:50;97093.69;;;14.29;58.36
35878;BME280;21982;49.804;24.072;2023-03-21T12:27:42;97102.88;;;14.33;58.50
35878;BME280;21982;49.804;24.072;2023-03-21T12:33:19;96991.63;;;13.85;57.63
35878;BME280;21982;49.804;24.072;2023-03-21T12:41:35;96825.63;;;13.05;57.07
35878;BME280;21982;49.804;24.072;2023-03-21T12:44:09;96950.94;;;13.78;56.61
35878;BME280;21982;49.804;24.072;2023-03-21T12:49:09;97096.06;;;14.68;56.55
35878;BME280;21982;49.804;24.072;2023-03-21T12:51:47;97110.53;;;14.97;56.20
35878;BME280;21982;49.804;24.072;2023-03-21T12:54:28;97088.66;;;15.14;55.74
35878;BME280;21982;49.804;24.072;2023-03-21T12:57:03;97083.06;;;15.33;55.25
35878;BME280;21982;49.804;24.072;2023-03-21T12:59:55;97082.47;;;15.50;54.68
35878;BME280;21982;49.804;24.072;2023-03-21T13:02:29;97080.84;;;15.49;54.54
35878;BME280;21982;49.804;24.072;2023-03-21T13:05:00;97088.59;;;15.57;54.29
35878;BME280;21982;49.804;24.072;2023-03-21T13:07:33;97048.50;;;15.75;54.21
35878;BME280;21982;49.804;24.072;2023-03-21T13:10:01;97049.25;;;16.47;53.29
35878;BME280;21982;49.804;24.072;2023-03-21T13:12:42;97009.38;;;16.92;51.71
35878;BME280;21982;49.804;24.072;2023-03-21T13:15:48;97032.16;;;17.47;51.03
35878;BME280;21982;49.804;24.072;2023-03-21T13:21:40;97068.78;;;18.60;49.43
35878;BME280;21982;49.804;24.072;2023-03-21T13:29:28;96998.34;;;19.08;47.03
35878;BME280;21982;49.804;24.072;2023-03-21T13:34:43;97010.75;;;18.70;46.14
35878;BME280;21982;49.804;24.072;2023-03-21T13:37:17;97083.44;;;18.91;46.30
35878;BME280;21982;49.804;24.072;2023-03-21T13:39:45;96897.78;;;18.12;46.21
35878;BME280;21982;49.804;24.072;2023-03-21T13:42:21;97012.16;;;18.78;45.75
35878;BME280;21982;49.804;24.072;2023-03-21T13:44:51;96941.78;;;18.16;45.83
35878;BME280;21982;49.804;24.072;2023-03-21T13:48:24;97045.53;;;18.65;45.55
35878;BME280;21982;49.804;24.072;2023-03-21T13:55:38;97048.06;;;17.13;46.91
35878;BME280;21982;49.804;24.072;2023-03-21T13:58:31;97048.53;;;16.63;47.42
35878;BME280;21982;49.804;24.072;2023-03-21T14:06:53;96475.56;;;11.89;48.57
35878;BME280;21982;49.804;24.072;2023-03-21T14:09:28;97047.44;;;15.28;49.23
35878;BME280;21982;49.804;24.072;2023-03-21T14:11:58;96947.97;;;14.36;49.78
35878;BME280;21982;49.804;24.072;2023-03-21T14:14:29;96949.88;;;14.29;49.69
35878;BME280;21982;49.804;24.072;2023-03-21T14:16:56;96954.16;;;14.12;50.37
35878;BME280;21982;49.804;24.072;2023-03-21T14:19:31;97044.81;;;14.66;50.36
35878;BME280;21982;49.804;24.072;2023-03-21T14:21:57;96881.22;;;13.45;50.80
35878;BME280;21982;49.804;24.072;2023-03-21T14:24:22;97010.38;;;14.22;51.01
35878;BME280;21982;49.804;24.072;2023-03-21T14:26:49;97056.50;;;14.47;51.63
35878;BME280;21982;49.804;24.072;2023-03-21T14:29:23;97061.44;;;14.44;51.46
35878;BME280;21982;49.804;24.072;2023-03-21T14:31:57;97077.53;;;14.24;51.77
35878;BME280;21982;49.804;24.072;2023-03-21T14:34:25;96886.94;;;13.10;52.29